createdAt,value
2023-04-05T00:00:37.964Z,5.50
2023-04-05T00:03:05.912Z,5.80
2023-04-05T00:05:36.309Z,5.90
2023-04-05T00:08:13.335Z,5.80
2023-04-05T00:10:41.438Z,5.80
2023-04-05T00:13:09.424Z,5.70
2023-04-05T00:15:37.370Z,5.90
2023-04-05T00:18:05.237Z,5.30
2023-04-05T00:20:33.528Z,5.80
2023-04-05T00:23:02.623Z,5.60
2023-04-05T00:25:30.504Z,6.00
2023-04-05T00:27:58.316Z,5.20
2023-04-05T00:30:28.989Z,5.70
2023-04-05T00:32:56.958Z,5.70
2023-04-05T00:35:27.878Z,5.50
2023-04-05T00:37:56.960Z,5.60
2023-04-05T00:40:26.314Z,5.40
2023-04-05T00:42:54.127Z,4.90
2023-04-05T00:45:22.154Z,5.60
2023-04-05T00:47:50.040Z,4.70
2023-04-05T00:50:18.209Z,5.50
2023-04-05T00:52:46.928Z,5.30
2023-04-05T00:55:15.065Z,5.30
2023-04-05T00:57:45.249Z,5.40
2023-04-05T01:00:15.087Z,4.60
2023-04-05T01:02:49.822Z,5.30
2023-04-05T01:05:31.413Z,4.50
2023-04-05T01:08:08.446Z,4.40
2023-04-05T01:10:39.982Z,4.30
2023-04-05T01:13:09.565Z,5.00
2023-04-05T01:15:37.565Z,5.30
2023-04-05T01:18:06.013Z,5.30
2023-04-05T01:20:40.739Z,5.10
2023-04-05T01:23:37.533Z,4.80
2023-04-05T01:26:37.220Z,4.90
2023-04-05T01:29:36.480Z,4.50
2023-04-05T01:32:12.476Z,4.90
2023-04-05T01:34:50.353Z,5.20
2023-04-05T01:37:21.318Z,5.20
2023-04-05T01:39:50.927Z,5.00
2023-04-05T01:42:25.017Z,5.10
2023-04-05T01:44:55.788Z,5.00
2023-04-05T01:47:23.700Z,5.10
2023-04-05T01:49:51.504Z,4.80
2023-04-05T01:52:19.305Z,5.10
2023-04-05T01:54:47.039Z,4.90
2023-04-05T01:57:14.874Z,4.20
2023-04-05T01:59:42.716Z,4.80
2023-04-05T02:02:12.172Z,4.90
2023-04-05T02:04:39.960Z,4.70
2023-04-05T02:07:07.777Z,4.60
2023-04-05T02:09:35.564Z,4.90
2023-04-05T02:12:03.373Z,4.50
2023-04-05T02:14:31.261Z,4.10
2023-04-05T02:17:03.028Z,4.60
2023-04-05T02:19:40.791Z,4.40
2023-04-05T02:22:09.268Z,4.30
2023-04-05T02:24:37.026Z,4.00
2023-04-05T02:27:04.986Z,4.40
2023-04-05T02:29:32.737Z,4.30
2023-04-05T02:32:07.844Z,3.60
2023-04-05T02:34:38.493Z,4.20
2023-04-05T02:37:06.646Z,3.90
2023-04-05T02:39:34.542Z,4.30
2023-04-05T02:42:02.297Z,4.20
2023-04-05T02:44:30.334Z,4.00
2023-04-05T02:46:58.123Z,4.40
2023-04-05T02:49:25.938Z,3.90
2023-04-05T02:51:55.803Z,3.80
2023-04-05T02:54:23.677Z,4.50
2023-04-05T02:56:54.625Z,4.20
2023-04-05T02:59:22.723Z,4.10
2023-04-05T03:01:50.640Z,4.30
2023-04-05T03:04:18.903Z,4.20
2023-04-05T03:06:48.760Z,4.40
2023-04-05T03:09:17.914Z,3.90
2023-04-05T03:11:45.855Z,4.20
2023-04-05T03:14:13.746Z,3.80
2023-04-05T03:16:41.490Z,4.40
2023-04-05T03:19:09.848Z,3.80
2023-04-05T03:21:39.795Z,3.80
2023-04-05T03:24:08.342Z,3.80
2023-04-05T03:26:37.567Z,3.80
2023-04-05T03:29:05.426Z,3.60
2023-04-05T03:31:33.261Z,3.80
2023-04-05T03:34:01.037Z,3.70
2023-04-05T03:36:30.592Z,3.60
2023-04-05T03:38:58.794Z,3.70
2023-04-05T03:41:27.018Z,3.60
2023-04-05T03:43:56.074Z,3.00
2023-04-05T03:46:23.917Z,3.70
2023-04-05T03:48:51.657Z,3.60
2023-04-05T03:51:19.603Z,3.50
2023-04-05T03:53:47.348Z,3.40
2023-04-05T03:56:15.253Z,3.50
2023-04-05T03:58:43.401Z,3.30
2023-04-05T04:01:12.949Z,2.80
2023-04-05T04:03:40.726Z,3.20
2023-04-05T04:06:08.938Z,3.00
2023-04-05T04:08:36.897Z,3.10
2023-04-05T04:11:04.942Z,3.20
2023-04-05T04:13:32.740Z,3.40
2023-04-05T04:16:00.899Z,3.30
2023-04-05T04:18:30.117Z,3.20
2023-04-05T04:20:58.630Z,2.90
2023-04-05T04:23:27.145Z,2.90
2023-04-05T04:25:55.793Z,2.90
2023-04-05T04:28:25.025Z,3.30
2023-04-05T04:30:52.792Z,2.90
2023-04-05T04:33:20.784Z,2.80
2023-04-05T04:35:50.641Z,2.90
2023-04-05T04:38:20.659Z,2.90
2023-04-05T04:40:50.745Z,2.60
2023-04-05T04:43:18.862Z,2.50
2023-04-05T04:45:48.265Z,2.90
2023-04-05T04:48:17.205Z,2.40
2023-04-05T04:50:45.572Z,3.30
2023-04-05T04:53:17.358Z,2.90
2023-04-05T04:55:45.238Z,3.00
2023-04-05T04:58:14.228Z,3.00
2023-04-05T05:00:44.207Z,3.20
2023-04-05T05:03:12.494Z,3.00
2023-04-05T05:05:44.046Z,3.00
2023-04-05T05:08:12.032Z,3.00
2023-04-05T05:10:41.529Z,3.30
2023-04-05T05:13:11.052Z,3.10
2023-04-05T05:15:40.924Z,2.90
2023-04-05T05:18:08.867Z,2.90
2023-04-05T05:20:37.431Z,3.10
2023-04-05T05:23:05.828Z,3.10
2023-04-05T05:25:33.726Z,3.10
2023-04-05T05:28:02.968Z,3.20
2023-04-05T05:30:31.113Z,3.00
2023-04-05T05:32:58.879Z,3.30
2023-04-05T05:35:27.773Z,2.70
2023-04-05T05:37:55.702Z,3.40
2023-04-05T05:40:23.559Z,3.50
2023-04-05T05:42:51.401Z,3.40
2023-04-05T05:45:20.588Z,3.50
2023-04-05T05:47:48.404Z,3.60
2023-04-05T05:50:17.084Z,2.80
2023-04-05T05:52:44.904Z,3.40
2023-04-05T05:55:12.686Z,3.50
2023-04-05T05:57:40.649Z,3.50
2023-04-05T06:00:10.392Z,3.10
2023-04-05T06:02:39.667Z,3.50
2023-04-05T06:05:08.825Z,3.60
2023-04-05T06:07:37.814Z,3.70
2023-04-05T06:10:06.431Z,3.40
2023-04-05T06:12:34.428Z,3.70
2023-04-05T06:15:02.944Z,3.70
2023-04-05T06:17:30.959Z,4.10
2023-04-05T06:20:00.186Z,3.40
2023-04-05T06:22:28.711Z,4.10
2023-04-05T06:24:56.513Z,4.50
2023-04-05T06:27:24.484Z,4.40
2023-04-05T06:29:52.300Z,4.30
2023-04-05T06:32:20.719Z,4.60
2023-04-05T06:34:48.982Z,4.40
2023-04-05T06:37:18.084Z,4.90
2023-04-05T06:39:45.894Z,6.00
2023-04-05T06:42:13.613Z,8.00
2023-04-05T06:44:41.509Z,9.50
2023-04-05T06:47:09.341Z,11.20
2023-04-05T06:49:37.108Z,12.30
2023-04-05T06:52:05.944Z,12.70
2023-04-05T06:54:35.525Z,13.60
2023-04-05T06:57:03.305Z,13.90
2023-04-05T06:59:31.077Z,14.50
2023-04-05T07:01:58.850Z,14.60
2023-04-05T07:04:29.207Z,15.10
2023-04-05T07:06:58.695Z,15.70
2023-04-05T07:09:30.138Z,15.80
2023-04-05T07:11:59.199Z,15.40
2023-04-05T07:14:26.963Z,15.40
2023-04-05T07:16:54.757Z,15.90
2023-04-05T07:19:22.669Z,16.00
2023-04-05T07:21:51.151Z,16.50
2023-04-05T07:24:19.089Z,17.20
2023-04-05T07:26:47.038Z,17.10
2023-04-05T07:29:16.705Z,16.60
2023-04-05T07:31:44.755Z,17.10
2023-04-05T07:34:13.819Z,17.20
2023-04-05T07:36:41.760Z,17.30
2023-04-05T07:39:09.728Z,18.00
2023-04-05T07:41:38.081Z,17.90
2023-04-05T07:44:06.079Z,18.10
2023-04-05T07:46:35.900Z,18.10
2023-04-05T07:49:03.722Z,19.10
2023-04-05T07:51:31.639Z,19.00
2023-04-05T07:54:02.607Z,18.50
2023-04-05T07:56:31.634Z,18.60
2023-04-05T07:58:59.684Z,18.70
2023-04-05T08:01:31.518Z,18.50
2023-04-05T08:04:02.778Z,19.20
2023-04-05T08:06:32.794Z,19.40
2023-04-05T08:09:04.401Z,19.70
2023-04-05T08:11:34.334Z,19.50
2023-04-05T08:14:04.089Z,19.90
2023-04-05T08:16:34.251Z,19.80
2023-04-05T08:19:05.541Z,20.10
2023-04-05T08:21:35.287Z,19.90
2023-04-05T08:24:05.152Z,19.70
2023-04-05T08:26:34.930Z,19.60
2023-04-05T08:29:04.692Z,20.10
2023-04-05T08:31:34.480Z,20.30
2023-04-05T08:34:08.860Z,20.30
2023-04-05T08:36:38.760Z,20.10
2023-04-05T08:39:08.455Z,19.80
2023-04-05T08:41:42.889Z,20.00
2023-04-05T08:44:14.215Z,20.50
2023-04-05T08:46:47.147Z,20.30
2023-04-05T08:49:18.392Z,20.90
2023-04-05T08:51:47.981Z,20.70
2023-04-05T08:54:17.929Z,20.70
2023-04-05T08:56:48.896Z,20.50
2023-04-05T08:59:19.082Z,20.60
2023-04-05T09:01:49.028Z,20.70
2023-04-05T09:04:23.271Z,20.70
2023-04-05T09:06:52.016Z,20.80
2023-04-05T09:09:22.279Z,20.40
2023-04-05T09:11:50.904Z,20.20
2023-04-05T09:14:18.807Z,20.70
2023-04-05T09:16:46.866Z,20.60
2023-04-05T09:19:14.837Z,20.70
2023-04-05T09:22:04.211Z,20.60
2023-04-05T09:24:34.752Z,20.60
2023-04-05T09:27:07.266Z,19.50
2023-04-05T09:29:35.442Z,19.40
2023-04-05T09:32:04.531Z,19.00
2023-04-05T09:34:33.861Z,19.00
2023-04-05T09:37:03.078Z,19.90
2023-04-05T09:39:32.891Z,20.40
2023-04-05T09:42:07.244Z,20.20
2023-04-05T09:44:57.195Z,20.10
2023-04-05T09:47:27.549Z,20.20
2023-04-05T09:49:55.778Z,19.90
2023-04-05T09:52:26.605Z,20.10
2023-04-05T09:54:56.370Z,19.30
2023-04-05T09:57:26.307Z,19.40
2023-04-05T09:59:55.128Z,19.60
2023-04-05T10:02:23.862Z,19.50
2023-04-05T10:04:52.262Z,19.90
2023-04-05T10:07:21.153Z,19.80
2023-04-05T10:09:50.363Z,19.70
2023-04-05T10:12:26.692Z,20.10
2023-04-05T10:14:55.294Z,19.50
2023-04-05T10:17:28.408Z,19.50
2023-04-05T10:20:10.748Z,18.80
2023-04-05T10:22:44.705Z,18.80
2023-04-05T10:25:24.673Z,19.10
2023-04-05T10:27:56.480Z,19.30
2023-04-05T10:30:29.062Z,19.90
2023-04-05T10:33:14.635Z,20.10
2023-04-05T10:35:51.620Z,19.60
2023-04-05T10:38:25.510Z,17.40
2023-04-05T10:40:58.727Z,17.50
2023-04-05T10:43:27.795Z,17.50
2023-04-05T10:45:57.082Z,17.60
2023-04-05T10:48:37.983Z,17.60
2023-04-05T10:51:06.336Z,17.90
2023-04-05T10:53:35.320Z,17.70
2023-04-05T10:56:04.727Z,17.90
2023-04-05T10:58:33.929Z,18.40
2023-04-05T11:01:04.240Z,18.10
2023-04-05T11:03:48.836Z,17.40
2023-04-05T11:06:20.931Z,17.60
2023-04-05T11:08:51.273Z,17.50
2023-04-05T11:11:22.953Z,17.50
2023-04-05T11:13:52.926Z,16.90
2023-04-05T11:16:21.432Z,17.20
2023-04-05T11:18:51.652Z,17.80
2023-04-05T11:21:25.096Z,17.20
2023-04-05T11:24:04.440Z,17.80
2023-04-05T11:26:49.301Z,17.50
2023-04-05T11:29:17.288Z,17.40
2023-04-05T11:31:59.448Z,16.80
2023-04-05T11:34:27.525Z,16.40
2023-04-05T11:36:55.453Z,17.10
2023-04-05T11:39:27.760Z,17.30
2023-04-05T11:42:03.895Z,17.70
2023-04-05T11:44:44.643Z,18.10
2023-04-05T11:47:12.901Z,18.00
2023-04-05T11:49:42.069Z,17.40
2023-04-05T11:52:15.595Z,17.20
2023-04-05T11:54:47.013Z,16.60
2023-04-05T11:57:20.845Z,15.90
2023-04-05T11:59:51.520Z,16.60
2023-04-05T12:02:19.573Z,16.40
2023-04-05T12:04:55.252Z,17.00
2023-04-05T12:07:26.239Z,17.40
2023-04-05T12:10:07.087Z,18.00
2023-04-05T12:12:38.356Z,18.40
2023-04-05T12:15:08.496Z,18.30
2023-04-05T12:17:40.252Z,18.70
2023-04-05T12:20:09.407Z,18.10
2023-04-05T12:22:38.864Z,17.50
2023-04-05T12:25:07.972Z,17.30
2023-04-05T12:27:37.390Z,17.20
2023-04-05T12:30:15.513Z,16.70
2023-04-05T12:32:47.778Z,17.10
2023-04-05T12:35:20.608Z,16.90
2023-04-05T12:37:48.811Z,16.10
2023-04-05T12:40:22.639Z,16.30
2023-04-05T12:42:52.070Z,15.90
2023-04-05T12:45:24.151Z,16.40
2023-04-05T12:47:53.821Z,16.90
2023-04-05T12:50:28.760Z,17.00
2023-04-05T12:52:57.890Z,17.60
2023-04-05T12:55:28.633Z,17.60
2023-04-05T12:58:01.197Z,18.00
2023-04-05T13:00:31.187Z,17.90
2023-04-05T13:03:00.561Z,17.60
2023-04-05T13:05:30.559Z,17.30
2023-04-05T13:07:58.784Z,17.00
2023-04-05T13:10:27.455Z,17.10
2023-04-05T13:12:56.727Z,16.30
2023-04-05T13:15:24.540Z,16.40
2023-04-05T13:17:54.693Z,16.30
2023-04-05T13:20:22.684Z,16.00
2023-04-05T13:22:51.022Z,15.80
2023-04-05T13:25:18.781Z,15.70
2023-04-05T13:27:46.618Z,16.00
2023-04-05T13:30:16.529Z,16.20
2023-04-05T13:32:44.336Z,16.40
2023-04-05T13:35:12.319Z,16.70
2023-04-05T13:37:40.474Z,16.80
2023-04-05T13:40:09.372Z,16.30
2023-04-05T13:42:37.229Z,16.30
2023-04-05T13:45:05.657Z,15.70
2023-04-05T13:47:34.814Z,15.40
2023-04-05T13:50:02.682Z,14.90
2023-04-05T13:52:30.786Z,15.60
2023-04-05T13:55:03.303Z,14.90
2023-04-05T13:57:32.516Z,14.60
2023-04-05T14:00:00.737Z,14.40
2023-04-05T14:02:29.059Z,14.00
2023-04-05T14:04:58.317Z,13.60
2023-04-05T14:07:26.462Z,13.90
2023-04-05T14:09:54.293Z,14.00
2023-04-05T14:12:22.223Z,13.60
2023-04-05T14:14:51.281Z,13.50
2023-04-05T14:17:19.220Z,13.70
2023-04-05T14:19:47.442Z,13.80
2023-04-05T14:22:17.387Z,14.50
2023-04-05T14:24:45.474Z,14.60
2023-04-05T14:27:13.821Z,14.80
2023-04-05T14:29:41.787Z,14.90
2023-04-05T14:32:09.731Z,14.80
2023-04-05T14:34:37.798Z,14.90
2023-04-05T14:37:06.586Z,14.50
2023-04-05T14:39:36.190Z,14.70
2023-04-05T14:42:04.615Z,14.80
2023-04-05T14:44:32.584Z,14.50
2023-04-05T14:47:00.701Z,14.70
2023-04-05T14:49:28.771Z,14.30
2023-04-05T14:51:57.043Z,14.70
2023-04-05T14:54:25.007Z,14.90
2023-04-05T14:56:54.443Z,14.70
2023-04-05T14:59:22.639Z,14.50
2023-04-05T15:01:50.887Z,14.40
2023-04-05T15:04:18.796Z,14.50
2023-04-05T15:06:46.683Z,14.50
2023-04-05T15:09:14.651Z,14.30
2023-04-05T15:11:42.628Z,14.30
2023-04-05T15:14:18.239Z,13.90
2023-04-05T15:16:56.747Z,13.90
2023-04-05T15:19:24.853Z,13.60
2023-04-05T15:21:52.820Z,13.50
2023-04-05T15:24:21.087Z,13.50
2023-04-05T15:26:49.031Z,13.40
2023-04-05T15:29:18.435Z,13.40
2023-04-05T15:31:46.683Z,13.20
2023-04-05T15:34:14.760Z,12.80
2023-04-05T15:36:42.689Z,13.40
2023-04-05T15:39:10.830Z,13.20
2023-04-05T15:41:38.845Z,13.60
2023-04-05T15:44:07.293Z,13.60
2023-04-05T15:46:36.674Z,13.60
2023-04-05T15:49:04.934Z,13.30
2023-04-05T15:51:33.940Z,13.90
2023-04-05T15:54:01.925Z,13.70
2023-04-05T15:56:30.412Z,13.70
2023-04-05T15:58:58.701Z,13.50
2023-04-05T16:01:26.874Z,13.40
2023-04-05T16:03:56.319Z,13.00
2023-04-05T16:06:28.161Z,13.30
2023-04-05T16:08:56.203Z,13.10
2023-04-05T16:11:24.430Z,13.50
2023-04-05T16:13:54.131Z,13.50
2023-04-05T16:16:32.368Z,13.10
2023-04-05T16:19:11.278Z,13.30
2023-04-05T16:21:39.639Z,13.40
2023-04-05T16:24:08.811Z,13.40
2023-04-05T16:26:36.890Z,13.20
2023-04-05T16:29:05.282Z,13.10
2023-04-05T16:31:33.866Z,12.40
2023-04-05T16:34:02.133Z,12.40
2023-04-05T16:36:31.470Z,13.20
2023-04-05T16:38:59.337Z,12.40
2023-04-05T16:41:27.501Z,13.10
2023-04-05T16:43:55.716Z,12.80
2023-04-05T16:46:33.669Z,12.60
2023-04-05T16:49:02.299Z,12.20
2023-04-05T16:51:32.391Z,12.30
2023-04-05T16:54:00.710Z,12.80
2023-04-05T16:56:28.734Z,12.50
2023-04-05T16:58:57.385Z,12.70
2023-04-05T17:01:25.974Z,12.70
2023-04-05T17:03:54.095Z,12.40
2023-04-05T17:06:22.475Z,12.10
2023-04-05T17:08:52.124Z,12.50
2023-04-05T17:11:20.360Z,12.30
2023-04-05T17:13:48.982Z,12.10
2023-04-05T17:16:17.465Z,11.70
2023-04-05T17:18:45.796Z,11.60
2023-04-05T17:21:13.891Z,11.50
2023-04-05T17:23:41.875Z,11.10
2023-04-05T17:26:11.394Z,11.90
2023-04-05T17:28:39.968Z,11.40
2023-04-05T17:31:08.037Z,11.50
2023-04-05T17:33:36.952Z,10.90
2023-04-05T17:36:05.172Z,11.20
2023-04-05T17:38:33.279Z,11.00
2023-04-05T17:41:01.453Z,11.40
2023-04-05T17:43:31.345Z,11.00
2023-04-05T17:45:59.476Z,10.80
2023-04-05T17:48:29.476Z,10.40
2023-04-05T17:50:57.801Z,11.00
2023-04-05T17:53:26.624Z,10.20
2023-04-05T17:55:56.951Z,10.20
2023-04-05T17:58:24.981Z,10.70
2023-04-05T18:00:54.358Z,10.40
2023-04-05T18:03:22.881Z,9.90
2023-04-05T18:05:53.475Z,10.40
2023-04-05T18:08:23.557Z,10.40
2023-04-05T18:10:56.284Z,10.40
2023-04-05T18:13:24.292Z,10.30
2023-04-05T18:15:55.242Z,9.80
2023-04-05T18:18:23.758Z,10.30
2023-04-05T18:20:52.855Z,10.30
2023-04-05T18:23:24.566Z,10.00
2023-04-05T18:25:53.994Z,10.30
2023-04-05T18:28:23.702Z,9.90
2023-04-05T18:30:52.711Z,9.70
2023-04-05T18:33:23.080Z,9.40
2023-04-05T18:35:51.356Z,9.90
2023-04-05T18:38:19.830Z,9.80
2023-04-05T18:40:48.347Z,9.80
2023-04-05T18:43:16.255Z,9.10
2023-04-05T18:45:44.396Z,9.90
2023-04-05T18:48:12.672Z,9.80
2023-04-05T18:50:42.386Z,9.80
2023-04-05T18:53:10.601Z,9.70
2023-04-05T18:55:41.569Z,9.60
2023-04-05T18:58:09.798Z,9.10
2023-04-05T19:00:37.732Z,9.10
2023-04-05T19:03:05.896Z,9.30
2023-04-05T19:05:34.387Z,8.70
2023-04-05T19:08:06.932Z,9.20
2023-04-05T19:10:35.324Z,9.50
2023-04-05T19:13:03.351Z,8.90
2023-04-05T19:15:31.732Z,9.30
2023-04-05T19:18:01.019Z,8.50
2023-04-05T19:20:29.053Z,9.10
2023-04-05T19:22:56.981Z,8.80
2023-04-05T19:25:26.388Z,8.80
2023-04-05T19:27:54.823Z,8.70
2023-04-05T19:30:23.295Z,8.80
2023-04-05T19:32:54.811Z,8.60
2023-04-05T19:35:22.972Z,8.70
2023-04-05T19:37:51.220Z,8.90
2023-04-05T19:40:19.513Z,8.00
2023-04-05T19:42:49.035Z,8.50
2023-04-05T19:45:26.733Z,8.70
2023-04-05T19:47:56.056Z,8.50
2023-04-05T19:50:58.205Z,8.60
2023-04-05T19:53:44.730Z,8.30
2023-04-05T19:56:16.252Z,8.60
2023-04-05T19:58:46.028Z,8.80
2023-04-05T20:01:30.342Z,8.30
2023-04-05T20:03:58.602Z,8.40
2023-04-05T20:06:27.293Z,8.50
2023-04-05T20:09:02.972Z,8.20
2023-04-05T20:11:31.635Z,8.10
2023-04-05T20:14:02.124Z,7.90
2023-04-05T20:16:31.672Z,8.20
2023-04-05T20:19:02.379Z,7.80
2023-04-05T20:21:31.087Z,8.00
2023-04-05T20:24:00.034Z,7.60
2023-04-05T20:26:30.336Z,7.80
2023-04-05T20:29:01.497Z,7.90
2023-04-05T20:31:31.943Z,7.50
2023-04-05T20:34:05.769Z,8.00
2023-04-05T20:36:36.200Z,7.70
2023-04-05T20:39:06.765Z,7.60
2023-04-05T20:41:35.012Z,6.80
2023-04-05T20:44:04.492Z,7.20
2023-04-05T20:46:32.556Z,7.40
2023-04-05T20:49:01.252Z,6.60
2023-04-05T20:51:29.550Z,7.40
2023-04-05T20:53:57.730Z,7.30
2023-04-05T20:56:25.852Z,7.10
2023-04-05T20:58:54.924Z,7.40
2023-04-05T21:01:24.597Z,7.40
2023-04-05T21:03:53.733Z,7.30
2023-04-05T21:06:22.012Z,7.20
2023-04-05T21:08:50.010Z,7.30
2023-04-05T21:11:17.937Z,6.90
2023-04-05T21:13:45.895Z,7.50
2023-04-05T21:16:13.931Z,7.20
2023-04-05T21:18:43.306Z,7.30
2023-04-05T21:21:11.251Z,6.80
2023-04-05T21:23:39.176Z,7.50
2023-04-05T21:26:07.292Z,7.00
2023-04-05T21:28:35.302Z,7.30
2023-04-05T21:31:03.229Z,7.00
2023-04-05T21:33:31.191Z,6.60
2023-04-05T21:36:00.690Z,7.30
2023-04-05T21:38:28.648Z,7.20
2023-04-05T21:40:56.606Z,7.30
2023-04-05T21:43:24.529Z,7.10
2023-04-05T21:45:53.805Z,6.60
2023-04-05T21:48:21.759Z,6.60
2023-04-05T21:50:49.739Z,6.90
2023-04-05T21:53:19.028Z,6.70
2023-04-05T21:55:47.120Z,6.20
2023-04-05T21:58:20.759Z,6.50
2023-04-05T22:00:48.740Z,6.30
2023-04-05T22:03:16.765Z,6.70
2023-04-05T22:05:44.726Z,6.40
2023-04-05T22:08:12.607Z,6.50
2023-04-05T22:10:42.221Z,6.60
2023-04-05T22:13:10.152Z,6.20
2023-04-05T22:15:38.150Z,6.50
2023-04-05T22:18:06.602Z,6.70
2023-04-05T22:20:34.712Z,6.60
2023-04-05T22:23:05.187Z,6.60
2023-04-05T22:25:33.090Z,6.00
2023-04-05T22:28:02.414Z,5.80
2023-04-05T22:30:40.925Z,6.40
2023-04-05T22:33:12.733Z,6.30
2023-04-05T22:35:41.300Z,6.30
2023-04-05T22:38:09.610Z,5.50
2023-04-05T22:40:37.442Z,5.90
2023-04-05T22:43:06.980Z,5.30
2023-04-05T22:45:35.121Z,5.70
2023-04-05T22:48:03.102Z,5.70
2023-04-05T22:50:31.424Z,5.70
2023-04-05T22:52:59.827Z,5.70
2023-04-05T22:55:27.867Z,5.80
2023-04-05T22:57:55.810Z,5.60
2023-04-05T23:00:25.228Z,5.70
2023-04-05T23:02:53.159Z,5.30
2023-04-05T23:05:21.138Z,5.60
2023-04-05T23:07:49.252Z,5.80
2023-04-05T23:10:17.335Z,6.20
2023-04-05T23:12:46.344Z,5.80
2023-04-05T23:15:15.399Z,5.90
2023-04-05T23:17:45.035Z,5.80
2023-04-05T23:20:13.634Z,5.80
2023-04-05T23:22:41.562Z,5.70
2023-04-05T23:25:10.548Z,5.50
2023-04-05T23:27:38.478Z,5.70
2023-04-05T23:30:07.917Z,5.30
2023-04-05T23:32:35.977Z,5.60
2023-04-05T23:35:05.870Z,5.10
2023-04-05T23:37:33.854Z,5.80
2023-04-05T23:40:01.721Z,5.60
2023-04-05T23:42:29.725Z,5.70
2023-04-05T23:44:57.601Z,5.80
2023-04-05T23:47:25.664Z,5.30
2023-04-05T23:49:53.632Z,5.50
2023-04-05T23:52:22.939Z,5.90
2023-04-05T23:54:50.760Z,5.70
2023-04-05T23:57:18.710Z,5.20
2023-04-05T23:59:46.548Z,5.50
